createdAt,value
2022-12-16T00:02:23.882Z,2.42
2022-12-16T00:04:57.755Z,2.40
2022-12-16T00:07:30.572Z,2.39
2022-12-16T00:10:03.193Z,2.37
2022-12-16T00:12:35.713Z,2.35
2022-12-16T00:15:08.595Z,2.34
2022-12-16T00:17:41.026Z,2.33
2022-12-16T00:20:14.086Z,2.36
2022-12-16T00:22:46.717Z,2.37
2022-12-16T00:25:20.994Z,2.43
2022-12-16T00:27:58.756Z,2.50
2022-12-16T00:30:27.624Z,2.56
2022-12-16T00:33:00.603Z,2.58
2022-12-16T00:35:33.413Z,2.58
2022-12-16T00:38:05.901Z,2.58
2022-12-16T00:40:38.537Z,2.63
2022-12-16T00:43:11.279Z,2.69
2022-12-16T00:45:43.733Z,2.71
2022-12-16T00:48:16.471Z,2.74
2022-12-16T00:51:10.088Z,2.74
2022-12-16T00:53:42.640Z,2.72
2022-12-16T00:56:15.421Z,2.72
2022-12-16T00:58:48.173Z,2.75
2022-12-16T01:01:21.567Z,2.78
2022-12-16T01:03:56.500Z,2.79
2022-12-16T01:06:29.012Z,2.76
2022-12-16T02:35:39.113Z,2.87
2022-12-16T02:38:16.393Z,2.81
2022-12-16T02:40:58.666Z,2.81
2022-12-16T02:43:56.351Z,2.82
2022-12-16T02:46:30.418Z,2.79
2022-12-16T02:49:19.240Z,2.77
2022-12-16T02:51:51.882Z,2.79
2022-12-16T02:54:24.652Z,2.77
2022-12-16T02:57:02.129Z,2.78
2022-12-16T02:59:51.140Z,2.79
2022-12-16T03:02:35.013Z,2.80
2022-12-16T03:05:34.080Z,2.83
2022-12-16T03:08:16.891Z,2.83
2022-12-16T03:10:57.431Z,2.79
2022-12-16T03:13:40.695Z,2.73
2022-12-16T03:16:14.929Z,2.64
2022-12-16T03:18:50.554Z,2.57
2022-12-16T03:21:27.084Z,2.54
2022-12-16T03:24:08.371Z,2.55
2022-12-16T03:27:04.223Z,2.58
2022-12-16T03:29:56.681Z,2.61
2022-12-16T03:32:39.408Z,2.60
2022-12-16T03:35:17.785Z,2.59
2022-12-16T03:37:52.478Z,2.58
2022-12-16T03:40:26.040Z,2.58
2022-12-16T03:42:58.486Z,2.60
2022-12-16T03:45:40.000Z,2.61
2022-12-16T03:48:14.166Z,2.65
2022-12-16T03:50:46.508Z,2.68
2022-12-16T03:53:19.220Z,2.70
2022-12-16T03:55:51.754Z,2.72
2022-12-16T03:58:25.705Z,2.71
2022-12-16T04:00:58.322Z,2.74
2022-12-16T04:03:31.496Z,2.76
2022-12-16T04:06:04.772Z,2.75
2022-12-16T04:08:37.523Z,2.75
2022-12-16T04:11:29.624Z,2.77
2022-12-16T04:14:20.042Z,2.78
2022-12-16T04:17:10.567Z,2.78
2022-12-16T04:20:01.359Z,2.74
2022-12-16T04:22:59.487Z,2.68
2022-12-16T04:25:36.817Z,2.61
2022-12-16T04:28:09.409Z,2.59
2022-12-16T04:30:42.289Z,2.56
2022-12-16T04:33:34.200Z,2.56
2022-12-16T04:36:25.823Z,2.55
2022-12-16T04:39:15.956Z,2.55
2022-12-16T04:42:06.520Z,2.55
2022-12-16T04:44:57.621Z,2.55
2022-12-16T04:47:51.443Z,2.56
2022-12-16T04:50:41.803Z,2.55
2022-12-16T04:53:33.274Z,2.56
2022-12-16T04:56:25.057Z,2.51
2022-12-16T04:59:15.190Z,2.46
2022-12-16T05:02:05.567Z,2.44
2022-12-16T05:04:56.558Z,2.38
2022-12-16T05:07:47.575Z,2.32
2022-12-16T05:10:38.914Z,2.32
2022-12-16T05:13:29.571Z,2.36
2022-12-16T05:16:20.666Z,2.32
2022-12-16T05:19:11.439Z,2.29
2022-12-16T05:22:01.925Z,2.29
2022-12-16T05:24:53.175Z,2.32
2022-12-16T05:27:43.666Z,2.38
2022-12-16T05:30:34.273Z,2.38
2022-12-16T05:33:25.685Z,2.36
2022-12-16T05:36:16.600Z,2.39
2022-12-16T05:39:06.591Z,2.39
2022-12-16T05:41:58.075Z,2.46
2022-12-16T05:44:48.664Z,2.49
2022-12-16T05:47:39.532Z,2.49
2022-12-16T05:50:30.330Z,2.44
2022-12-16T05:53:22.427Z,2.39
2022-12-16T05:56:13.047Z,2.40
2022-12-16T05:59:03.694Z,2.44
2022-12-16T06:01:54.026Z,2.49
2022-12-16T06:04:44.934Z,2.53
2022-12-16T06:07:35.022Z,2.56
2022-12-16T06:10:26.585Z,2.61
2022-12-16T06:13:18.177Z,2.67
2022-12-16T06:16:09.414Z,2.68
2022-12-16T06:18:59.975Z,2.65
2022-12-16T06:21:50.829Z,2.68
2022-12-16T06:24:41.345Z,2.71
2022-12-16T06:27:33.335Z,2.72
2022-12-16T06:30:24.906Z,2.70
2022-12-16T06:33:15.375Z,2.70
2022-12-16T06:36:07.108Z,2.73
2022-12-16T06:38:58.077Z,2.76
2022-12-16T06:41:48.232Z,2.79
2022-12-16T06:44:38.801Z,2.82
2022-12-16T06:47:29.630Z,2.84
2022-12-16T06:50:20.404Z,2.85
2022-12-16T06:53:11.420Z,2.86
2022-12-16T06:56:01.989Z,2.88
2022-12-16T06:58:54.125Z,2.90
2022-12-16T07:01:45.997Z,2.89
2022-12-16T07:04:36.629Z,2.90
2022-12-16T07:07:27.581Z,2.93
2022-12-16T07:10:18.542Z,2.96
2022-12-16T07:13:08.983Z,2.96
2022-12-16T07:15:59.636Z,2.96
2022-12-16T07:18:50.252Z,2.98
2022-12-16T07:21:40.583Z,2.99
2022-12-16T07:24:30.962Z,2.99
2022-12-16T07:27:22.136Z,2.91
2022-12-16T07:30:13.158Z,2.83
2022-12-16T07:33:03.906Z,2.81
2022-12-16T07:35:54.538Z,2.79
2022-12-16T07:38:44.939Z,2.79
2022-12-16T07:41:35.155Z,2.82
2022-12-16T07:44:27.320Z,2.84
2022-12-16T07:47:17.879Z,2.86
2022-12-16T07:50:08.626Z,2.87
2022-12-16T07:52:51.942Z,2.86
2022-12-16T07:55:42.939Z,2.82
2022-12-16T07:58:33.720Z,2.84
2022-12-16T08:01:24.968Z,2.84
2022-12-16T08:04:18.523Z,2.84
2022-12-16T08:07:09.046Z,2.85
2022-12-16T08:10:00.043Z,2.84
2022-12-16T08:12:51.472Z,2.84
2022-12-16T08:15:41.992Z,2.79
2022-12-16T08:18:32.841Z,2.78
2022-12-16T08:21:25.252Z,2.75
2022-12-16T08:24:16.921Z,2.74
2022-12-16T08:27:07.397Z,2.72
2022-12-16T08:30:10.972Z,2.68
2022-12-16T08:33:12.138Z,2.65
2022-12-16T08:35:54.037Z,2.67
2022-12-16T08:38:44.495Z,2.69
2022-12-16T08:41:46.745Z,2.69
2022-12-16T08:44:30.343Z,2.67
2022-12-16T08:47:21.012Z,2.58
2022-12-16T08:50:11.880Z,2.52
2022-12-16T08:53:02.950Z,2.48
2022-12-16T08:55:54.400Z,2.50
2022-12-16T08:58:46.286Z,2.55
2022-12-16T09:01:37.116Z,2.60
2022-12-16T09:04:27.201Z,2.63
2022-12-16T09:07:17.863Z,2.62
2022-12-16T09:10:08.203Z,2.59
2022-12-16T09:12:59.748Z,2.61
2022-12-16T09:15:51.179Z,2.64
2022-12-16T09:18:42.343Z,2.66
2022-12-16T09:21:34.585Z,2.65
2022-12-16T09:24:26.787Z,2.67
2022-12-16T09:27:17.168Z,2.68
2022-12-16T09:30:07.494Z,2.68
2022-12-16T09:33:01.783Z,2.62
2022-12-16T09:35:53.050Z,2.53
2022-12-16T09:38:50.699Z,2.47
2022-12-16T09:42:03.489Z,2.40
2022-12-16T09:45:10.800Z,2.37
2022-12-16T09:48:26.796Z,2.32
2022-12-16T09:51:18.083Z,2.29
2022-12-16T09:54:28.456Z,2.30
2022-12-16T09:57:22.502Z,2.27
2022-12-16T10:00:21.245Z,2.18
2022-12-16T10:03:13.288Z,2.16
2022-12-16T10:09:45.390Z,2.11
2022-12-16T10:12:44.493Z,2.02
2022-12-16T10:16:10.123Z,1.94
2022-12-16T10:19:15.056Z,1.91
2022-12-16T10:22:27.392Z,1.88
2022-12-16T10:25:34.377Z,1.85
2022-12-16T10:28:40.952Z,1.82
2022-12-16T10:31:37.630Z,1.82
2022-12-16T10:34:40.521Z,1.79
2022-12-16T10:37:39.031Z,1.79
2022-12-16T10:40:34.128Z,1.80
2022-12-16T10:43:27.217Z,1.78
2022-12-16T10:46:17.402Z,1.76
2022-12-16T10:49:08.187Z,1.76
2022-12-16T10:52:00.185Z,1.77
2022-12-16T10:55:15.991Z,1.78
2022-12-16T10:58:41.326Z,1.77
2022-12-16T11:01:45.811Z,1.73
2022-12-16T11:04:55.801Z,1.70
2022-12-16T11:08:02.569Z,1.69
2022-12-16T11:10:59.881Z,1.68
2022-12-16T11:13:56.850Z,1.68
2022-12-16T11:16:48.335Z,1.71
2022-12-16T11:19:44.169Z,1.72
2022-12-16T11:22:40.178Z,1.77
2022-12-16T11:25:40.648Z,1.81
2022-12-16T11:28:34.191Z,1.85
2022-12-16T11:31:33.067Z,1.86
2022-12-16T11:34:23.550Z,1.85
2022-12-16T11:37:18.171Z,1.86
2022-12-16T11:40:06.050Z,1.86
2022-12-16T11:42:56.596Z,1.85
2022-12-16T11:45:47.084Z,1.86
2022-12-16T11:49:11.494Z,1.93
2022-12-16T11:52:21.190Z,1.97
2022-12-16T11:54:56.422Z,2.02
2022-12-16T11:58:09.872Z,2.01
2022-12-16T12:01:05.206Z,2.02
2022-12-16T12:04:00.314Z,2.05
2022-12-16T12:07:26.030Z,2.01
2022-12-16T12:10:42.183Z,2.02
2022-12-16T12:13:56.308Z,2.05
2022-12-16T12:17:10.229Z,2.06
2022-12-16T12:20:22.078Z,2.05
2022-12-16T12:23:12.244Z,2.05
2022-12-16T12:26:33.384Z,2.08
2022-12-16T12:29:40.918Z,2.08
2022-12-16T12:32:57.135Z,2.07
2022-12-16T12:36:21.086Z,2.10
2022-12-16T12:39:34.251Z,2.12
2022-12-16T14:23:57.345Z,2.44
2022-12-16T14:26:48.409Z,2.43
2022-12-16T14:29:51.555Z,2.41
2022-12-16T14:32:51.303Z,2.40
2022-12-16T14:35:43.620Z,2.39
2022-12-16T14:38:48.166Z,2.40
2022-12-16T14:41:43.332Z,2.39
2022-12-16T14:44:42.833Z,2.39
2022-12-16T14:47:38.724Z,2.39
2022-12-16T14:50:42.598Z,2.38
2022-12-16T14:53:46.673Z,2.39
2022-12-16T14:56:56.751Z,2.45
2022-12-16T14:59:48.554Z,2.35
2022-12-16T15:03:17.124Z,2.32
2022-12-16T15:06:12.834Z,2.32
2022-12-16T15:09:21.166Z,2.33
2022-12-16T15:12:12.954Z,2.33
2022-12-16T15:15:05.867Z,2.30
2022-12-16T15:18:08.310Z,2.28
2022-12-16T15:21:08.721Z,2.31
2022-12-16T15:24:01.789Z,2.31
2022-12-16T15:26:53.191Z,2.32
2022-12-16T15:30:01.029Z,2.32
2022-12-16T15:33:18.369Z,2.32
2022-12-16T15:36:09.045Z,2.32
2022-12-16T15:39:03.143Z,2.33
2022-12-16T15:41:58.615Z,2.34
2022-12-16T15:44:55.412Z,2.31
2022-12-16T15:47:52.475Z,2.30
2022-12-16T15:50:46.797Z,2.29
2022-12-16T15:53:55.433Z,2.27
2022-12-16T15:56:55.542Z,2.21
2022-12-16T15:59:48.817Z,2.16
2022-12-16T16:02:48.791Z,2.13
2022-12-16T16:05:43.191Z,2.12
2022-12-16T16:08:33.787Z,2.06
2022-12-16T16:11:23.816Z,2.05
2022-12-16T16:14:14.851Z,2.06
2022-12-16T16:17:05.835Z,2.03
2022-12-16T16:20:00.223Z,2.00
2022-12-16T16:22:48.160Z,2.02
2022-12-16T16:25:38.692Z,2.02
2022-12-16T16:28:29.517Z,2.03
2022-12-16T16:31:09.607Z,2.03
2022-12-16T16:34:00.572Z,2.01
2022-12-16T16:36:51.740Z,2.05
2022-12-16T16:39:42.409Z,2.01
2022-12-16T16:42:33.094Z,2.01
2022-12-16T16:45:31.376Z,1.99
2022-12-16T16:48:34.679Z,2.01
2022-12-16T16:51:25.332Z,2.02
2022-12-16T16:54:27.869Z,1.96
2022-12-16T16:57:20.458Z,1.95
2022-12-16T17:00:11.406Z,1.96
2022-12-16T17:03:03.380Z,1.96
2022-12-16T17:05:58.192Z,1.96
2022-12-16T17:08:49.088Z,1.98
2022-12-16T17:11:43.649Z,2.01
2022-12-16T17:14:35.819Z,2.05
2022-12-16T17:17:26.280Z,2.09
2022-12-16T17:20:17.667Z,2.10
2022-12-16T17:23:09.039Z,2.15
2022-12-16T17:26:00.693Z,2.16
2022-12-16T17:28:51.842Z,2.15
2022-12-16T17:31:42.693Z,2.16
2022-12-16T17:34:33.893Z,2.18
2022-12-16T17:37:25.891Z,2.22
2022-12-16T17:40:16.232Z,2.26
2022-12-16T17:43:06.834Z,2.26
2022-12-16T17:45:56.883Z,2.25
2022-12-16T17:48:47.022Z,2.29
2022-12-16T17:51:37.770Z,2.32
2022-12-16T17:54:29.589Z,2.34
2022-12-16T17:57:19.613Z,2.34
2022-12-16T18:00:10.291Z,2.34
2022-12-16T18:03:04.489Z,2.33
2022-12-16T18:05:55.383Z,2.34
2022-12-16T18:08:45.865Z,2.35
2022-12-16T18:11:39.458Z,2.34
2022-12-16T18:14:29.843Z,2.33
2022-12-16T18:17:21.162Z,2.35
2022-12-16T18:20:11.619Z,2.37
2022-12-16T18:23:01.927Z,2.38
2022-12-16T18:25:55.399Z,2.38
2022-12-16T18:29:00.231Z,2.41
2022-12-16T18:31:51.425Z,2.42
2022-12-16T18:34:42.181Z,2.43
2022-12-16T18:37:33.206Z,2.45
2022-12-16T18:40:29.032Z,2.44
2022-12-16T18:43:19.275Z,2.48
2022-12-16T18:46:13.444Z,2.50
2022-12-16T18:49:04.768Z,2.50
2022-12-16T18:51:55.387Z,2.51
2022-12-16T18:54:46.125Z,2.53
2022-12-16T18:57:39.607Z,2.50
2022-12-16T19:00:29.765Z,2.47
2022-12-16T19:03:20.790Z,2.51
2022-12-16T19:06:14.757Z,2.54
2022-12-16T19:09:05.003Z,2.54
2022-12-16T19:11:55.679Z,2.51
2022-12-16T19:14:46.064Z,2.56
2022-12-16T19:17:36.648Z,2.56
2022-12-16T19:20:33.012Z,2.55
2022-12-16T19:23:21.097Z,2.55
2022-12-16T19:26:31.056Z,2.59
2022-12-16T19:29:21.300Z,2.60
2022-12-16T19:32:01.875Z,2.62
2022-12-16T19:34:52.571Z,2.63
2022-12-16T19:37:55.426Z,2.63
2022-12-16T19:40:46.110Z,2.64
2022-12-16T19:43:36.552Z,2.63
2022-12-16T19:46:26.689Z,2.61
2022-12-16T19:49:17.895Z,2.58
2022-12-16T19:52:08.162Z,2.56
2022-12-16T19:55:12.839Z,2.58
2022-12-16T19:58:06.011Z,2.59
2022-12-16T20:00:57.362Z,2.60
2022-12-16T20:03:48.822Z,2.64
2022-12-16T20:06:39.681Z,2.67
2022-12-16T20:09:30.195Z,2.65
2022-12-16T20:12:20.743Z,2.66
2022-12-16T20:15:11.167Z,2.68
2022-12-16T20:18:04.258Z,2.69
2022-12-16T20:20:54.308Z,2.67
2022-12-16T20:23:46.365Z,2.61
2022-12-16T20:26:37.338Z,2.60
2022-12-16T20:29:28.058Z,2.56
2022-12-16T20:32:18.357Z,2.55
2022-12-16T20:35:10.591Z,2.57
2022-12-16T20:38:01.117Z,2.58
2022-12-16T20:40:53.349Z,2.62
2022-12-16T20:43:44.845Z,2.61
2022-12-16T20:46:34.869Z,2.63
2022-12-16T20:49:24.988Z,2.60
2022-12-16T20:52:05.459Z,2.62
2022-12-16T20:54:56.213Z,2.61
2022-12-16T20:57:46.643Z,2.60
2022-12-16T21:00:37.254Z,2.61
2022-12-16T21:03:28.220Z,2.59
2022-12-16T21:06:18.656Z,2.60
2022-12-16T21:09:09.483Z,2.66
2022-12-16T21:11:59.660Z,2.68
2022-12-16T21:14:50.286Z,2.69
2022-12-16T21:17:43.352Z,2.72
2022-12-16T21:20:33.761Z,2.74
2022-12-16T21:23:25.415Z,2.75
2022-12-16T21:26:20.382Z,2.76
2022-12-16T21:29:10.783Z,2.79
2022-12-16T21:32:00.943Z,2.80
2022-12-16T21:34:51.863Z,2.77
2022-12-16T21:37:41.947Z,2.79
2022-12-16T21:40:33.258Z,2.82
2022-12-16T21:43:23.180Z,2.86
2022-12-16T21:46:14.235Z,2.91
2022-12-16T21:49:04.296Z,2.90
2022-12-16T21:51:56.329Z,2.89
2022-12-16T21:54:46.862Z,2.86
2022-12-16T21:57:37.343Z,2.80
2022-12-16T22:00:28.660Z,2.80
2022-12-16T22:03:19.141Z,2.81
2022-12-16T22:06:11.212Z,2.83
2022-12-16T22:09:02.184Z,2.85
2022-12-16T22:11:52.944Z,2.89
2022-12-16T22:14:45.120Z,2.93
2022-12-16T22:17:37.305Z,2.96
2022-12-16T22:20:28.158Z,2.94
2022-12-16T22:23:22.051Z,2.92
2022-12-16T22:26:17.627Z,2.92
2022-12-16T22:29:07.302Z,2.93
2022-12-16T22:31:57.795Z,2.92
2022-12-16T22:34:41.436Z,2.91
2022-12-16T22:37:31.493Z,2.89
2022-12-16T22:40:21.913Z,2.89
2022-12-16T22:43:12.144Z,2.89
2022-12-16T22:46:02.582Z,2.86
2022-12-16T22:48:53.630Z,2.87
2022-12-16T22:51:45.455Z,2.89
2022-12-16T22:54:36.096Z,2.93
2022-12-16T22:57:27.529Z,2.97
2022-12-16T23:00:17.756Z,2.99
2022-12-16T23:03:07.638Z,3.03
2022-12-16T23:05:58.399Z,2.99
2022-12-16T23:08:48.723Z,2.92
2022-12-16T23:11:43.508Z,2.90
2022-12-16T23:17:33.811Z,2.94
2022-12-16T23:20:24.786Z,2.98
2022-12-16T23:23:15.595Z,3.03
2022-12-16T23:26:27.648Z,3.05
2022-12-16T23:29:17.665Z,3.08
2022-12-16T23:32:08.134Z,3.13
2022-12-16T23:32:30.682Z,2.91
2022-12-16T23:35:01.378Z,3.16
2022-12-16T23:37:51.918Z,3.19
2022-12-16T23:40:42.838Z,3.24
2022-12-16T23:43:33.298Z,3.28
2022-12-16T23:46:24.076Z,3.31
2022-12-16T23:49:14.557Z,3.31
2022-12-16T23:52:04.890Z,3.31
2022-12-16T23:54:55.057Z,3.35
2022-12-16T23:57:46.331Z,3.37
